createdAt,value
2023-02-23T00:01:24.409Z,5.60
2023-02-23T00:03:51.902Z,6.20
2023-02-23T00:06:19.483Z,5.70
2023-02-23T00:08:48.018Z,5.80
2023-02-23T00:11:16.000Z,6.40
2023-02-23T00:13:46.330Z,6.70
2023-02-23T00:16:16.770Z,6.40
2023-02-23T00:18:48.405Z,6.20
2023-02-23T00:21:16.426Z,6.20
2023-02-23T00:23:47.907Z,4.10
2023-02-23T00:26:14.890Z,6.40
2023-02-23T00:28:43.714Z,4.40
2023-02-23T00:31:11.840Z,6.40
2023-02-23T00:33:41.150Z,4.50
2023-02-23T00:36:13.641Z,3.60
2023-02-23T00:38:41.736Z,4.30
2023-02-23T00:41:12.463Z,5.90
2023-02-23T00:43:48.030Z,4.60
2023-02-23T00:46:19.091Z,6.00
2023-02-23T00:48:51.307Z,6.00
2023-02-23T00:51:19.504Z,6.80
2023-02-23T00:53:46.583Z,6.20
2023-02-23T00:56:14.378Z,4.20
2023-02-23T00:58:41.525Z,7.00
2023-02-23T01:01:09.865Z,6.60
2023-02-23T01:03:37.128Z,4.80
2023-02-23T01:06:07.093Z,5.70
2023-02-23T01:08:34.761Z,5.20
2023-02-23T01:11:13.470Z,5.60
2023-02-23T01:13:42.033Z,5.90
2023-02-23T01:16:11.261Z,6.30
2023-02-23T01:18:39.269Z,5.60
2023-02-23T01:21:06.613Z,6.10
2023-02-23T01:23:33.519Z,4.60
2023-02-23T01:26:00.569Z,4.10
2023-02-23T01:28:28.018Z,6.00
2023-02-23T01:30:55.074Z,6.60
2023-02-23T01:33:22.062Z,5.60
2023-02-23T01:35:59.565Z,6.20
2023-02-23T01:38:26.679Z,5.70
2023-02-23T01:40:53.546Z,5.80
2023-02-23T01:43:27.653Z,4.70
2023-02-23T01:45:55.684Z,6.30
2023-02-23T01:51:03.752Z,5.00
2023-02-23T01:53:34.256Z,6.30
2023-02-23T01:56:24.501Z,4.70
2023-02-23T01:58:53.217Z,6.10
2023-02-23T02:01:21.905Z,6.10
2023-02-23T02:03:51.688Z,6.60
2023-02-23T02:06:18.735Z,6.60
2023-02-23T02:08:47.557Z,5.60
2023-02-23T02:11:31.113Z,4.60
2023-02-23T02:14:03.724Z,6.30
2023-02-23T02:16:52.990Z,6.20
2023-02-23T02:20:06.405Z,5.80
2023-02-23T02:23:13.741Z,6.00
2023-02-23T02:25:54.744Z,6.20
2023-02-23T02:28:36.386Z,5.30
2023-02-23T02:31:15.733Z,6.30
2023-02-23T02:34:22.596Z,6.40
2023-02-23T02:37:20.621Z,5.20
2023-02-23T02:40:40.325Z,6.40
2023-02-23T02:43:17.722Z,6.20
2023-02-23T02:45:59.986Z,5.50
2023-02-23T02:48:42.397Z,5.80
2023-02-23T02:51:24.772Z,6.10
2023-02-23T02:56:40.396Z,6.10
2023-02-23T02:59:29.956Z,5.90
2023-02-23T03:02:15.815Z,6.10
2023-02-23T03:05:01.304Z,6.10
2023-02-23T03:08:00.586Z,5.20
2023-02-23T03:10:52.204Z,6.30
2023-02-23T03:13:45.117Z,5.80
2023-02-23T03:16:55.434Z,6.20
2023-02-23T03:19:45.277Z,6.10
2023-02-23T03:22:40.714Z,4.70
2023-02-23T03:25:37.505Z,5.10
2023-02-23T03:28:30.299Z,6.00
2023-02-23T03:34:22.383Z,5.80
2023-02-23T03:37:12.054Z,6.30
2023-02-23T03:40:01.123Z,5.70
2023-02-23T03:42:48.933Z,5.60
2023-02-23T03:45:36.578Z,6.00
2023-02-23T03:48:22.535Z,5.70
2023-02-23T03:51:11.929Z,5.20
2023-02-23T03:54:01.576Z,6.40
2023-02-23T03:56:47.305Z,6.20
2023-02-23T03:59:34.256Z,5.90
2023-02-23T04:02:19.994Z,6.40
2023-02-23T04:05:05.414Z,4.60
2023-02-23T04:07:51.010Z,5.60
2023-02-23T04:10:37.636Z,6.20
2023-02-23T04:13:15.738Z,6.20
2023-02-23T04:16:07.209Z,5.60
2023-02-23T04:18:35.323Z,5.70
2023-02-23T04:21:03.088Z,5.90
2023-02-23T04:23:31.108Z,5.90
2023-02-23T04:25:58.318Z,6.40
2023-02-23T04:28:27.133Z,5.70
2023-02-23T04:30:54.136Z,6.10
2023-02-23T04:33:22.262Z,5.90
2023-02-23T04:35:49.762Z,6.10
2023-02-23T04:38:17.067Z,7.00
2023-02-23T04:40:43.954Z,6.00
2023-02-23T04:43:14.772Z,6.60
2023-02-23T04:45:42.366Z,6.70
2023-02-23T04:48:09.388Z,6.80
2023-02-23T04:50:36.467Z,6.40
2023-02-23T04:53:03.608Z,7.60
2023-02-23T04:55:32.988Z,6.70
2023-02-23T04:58:01.091Z,6.20
2023-02-23T05:00:29.573Z,7.20
2023-02-23T05:02:57.685Z,7.30
2023-02-23T05:05:25.732Z,7.20
2023-02-23T05:07:53.867Z,6.50
2023-02-23T05:10:20.872Z,6.50
2023-02-23T05:12:47.987Z,6.80
2023-02-23T05:15:15.084Z,6.20
2023-02-23T05:17:42.144Z,6.60
2023-02-23T05:20:10.829Z,6.80
2023-02-23T05:22:40.524Z,6.60
2023-02-23T05:25:08.839Z,4.50
2023-02-23T05:27:36.998Z,6.90
2023-02-23T05:30:05.660Z,6.90
2023-02-23T05:32:33.102Z,7.70
2023-02-23T05:35:00.520Z,6.90
2023-02-23T05:37:27.419Z,7.00
2023-02-23T05:39:54.510Z,7.20
2023-02-23T05:42:21.490Z,6.50
2023-02-23T05:44:48.634Z,6.20
2023-02-23T05:47:15.528Z,6.80
2023-02-23T05:49:42.872Z,6.90
2023-02-23T05:52:09.849Z,6.80
2023-02-23T05:54:38.939Z,6.30
2023-02-23T05:57:05.987Z,7.40
2023-02-23T05:59:32.915Z,6.70
2023-02-23T06:02:00.090Z,6.60
2023-02-23T06:04:27.111Z,7.10
2023-02-23T06:06:54.368Z,6.70
2023-02-23T06:09:27.237Z,6.70
2023-02-23T06:11:55.857Z,5.40
2023-02-23T06:14:22.908Z,7.70
2023-02-23T06:16:50.083Z,7.10
2023-02-23T06:19:17.430Z,7.00
2023-02-23T06:21:45.118Z,6.80
2023-02-23T06:24:12.412Z,7.10
2023-02-23T06:26:39.601Z,7.30
2023-02-23T06:29:07.595Z,7.00
2023-02-23T06:31:34.772Z,7.00
2023-02-23T06:34:03.549Z,8.00
2023-02-23T06:36:31.412Z,7.30
2023-02-23T06:38:58.744Z,7.40
2023-02-23T06:41:25.987Z,7.60
2023-02-23T06:43:52.982Z,6.90
2023-02-23T06:46:21.009Z,7.80
2023-02-23T06:48:48.255Z,7.00
2023-02-23T06:51:15.167Z,5.50
2023-02-23T06:53:42.480Z,8.00
2023-02-23T06:56:10.594Z,7.60
2023-02-23T06:58:40.496Z,6.00
2023-02-23T07:01:10.197Z,7.60
2023-02-23T07:03:37.199Z,7.50
2023-02-23T07:06:06.288Z,7.20
2023-02-23T07:08:34.910Z,7.20
2023-02-23T07:11:09.029Z,6.60
2023-02-23T07:13:38.009Z,7.20
2023-02-23T07:16:06.692Z,7.10
2023-02-23T07:18:34.002Z,7.10
2023-02-23T07:21:02.605Z,7.70
2023-02-23T07:23:29.832Z,7.40
2023-02-23T07:25:58.237Z,6.60
2023-02-23T07:28:27.859Z,6.50
2023-02-23T07:30:58.699Z,6.80
2023-02-23T07:33:26.231Z,6.70
2023-02-23T07:35:53.553Z,6.80
2023-02-23T07:38:20.917Z,6.10
2023-02-23T07:40:50.466Z,6.60
2023-02-23T07:43:22.900Z,6.00
2023-02-23T07:45:51.941Z,6.20
2023-02-23T07:48:19.433Z,5.90
2023-02-23T07:50:47.504Z,6.20
2023-02-23T07:53:15.563Z,6.50
2023-02-23T07:55:42.783Z,8.10
2023-02-23T07:58:13.834Z,6.70
2023-02-23T08:00:41.639Z,6.30
2023-02-23T08:03:08.928Z,6.60
2023-02-23T08:05:37.757Z,6.30
2023-02-23T08:08:05.241Z,5.60
2023-02-23T08:10:38.526Z,5.80
2023-02-23T08:13:06.987Z,6.70
2023-02-23T08:15:39.637Z,5.20
2023-02-23T08:18:09.988Z,6.10
2023-02-23T08:20:39.127Z,6.40
2023-02-23T08:23:06.898Z,6.20
2023-02-23T08:25:35.068Z,6.50
2023-02-23T08:28:07.281Z,6.00
2023-02-23T08:30:35.934Z,6.10
2023-02-23T08:33:03.204Z,5.90
2023-02-23T08:35:31.672Z,6.30
2023-02-23T08:37:59.069Z,6.10
2023-02-23T08:40:26.724Z,5.80
2023-02-23T08:42:56.585Z,6.50
2023-02-23T08:45:23.965Z,5.80
2023-02-23T08:47:51.261Z,5.30
2023-02-23T08:50:18.536Z,4.90
2023-02-23T08:52:45.655Z,5.40
2023-02-23T08:55:16.586Z,6.00
2023-02-23T08:57:43.817Z,6.20
2023-02-23T09:00:16.790Z,5.70
2023-02-23T09:02:45.194Z,4.40
2023-02-23T09:05:12.340Z,5.40
2023-02-23T09:07:40.142Z,2.80
2023-02-23T09:10:08.620Z,4.70
2023-02-23T09:12:41.536Z,5.30
2023-02-23T09:15:09.195Z,5.00
2023-02-23T09:17:36.507Z,5.20
2023-02-23T09:20:05.109Z,4.00
2023-02-23T09:22:36.766Z,5.30
2023-02-23T09:25:05.014Z,3.60
2023-02-23T09:27:33.078Z,4.70
2023-02-23T09:30:00.121Z,5.10
2023-02-23T09:32:27.522Z,5.30
2023-02-23T09:34:54.601Z,3.80
2023-02-23T09:37:21.697Z,4.40
2023-02-23T09:39:49.499Z,4.10
2023-02-23T09:42:23.803Z,3.90
2023-02-23T09:45:27.193Z,3.70
2023-02-23T09:48:12.634Z,4.50
2023-02-23T09:50:40.614Z,5.20
2023-02-23T09:53:12.888Z,4.50
2023-02-23T09:55:41.621Z,5.30
2023-02-23T09:58:18.394Z,5.00
2023-02-23T10:00:46.488Z,4.90
2023-02-23T10:03:33.551Z,4.80
2023-02-23T10:06:06.679Z,5.20
2023-02-23T10:08:45.283Z,4.60
2023-02-23T10:11:21.195Z,5.20
2023-02-23T10:13:56.353Z,5.30
2023-02-23T10:16:30.111Z,5.30
2023-02-23T10:19:34.167Z,3.80
2023-02-23T10:22:06.546Z,4.70
2023-02-23T10:27:16.985Z,4.20
2023-02-23T10:29:53.074Z,4.00
2023-02-23T10:32:38.747Z,5.20
2023-02-23T10:35:13.080Z,5.00
2023-02-23T10:37:40.390Z,4.40
2023-02-23T10:40:08.352Z,5.00
2023-02-23T10:42:35.397Z,4.70
2023-02-23T10:45:02.403Z,3.40
2023-02-23T10:47:31.990Z,3.50
2023-02-23T10:50:02.583Z,3.50
2023-02-23T10:52:41.320Z,3.50
2023-02-23T10:57:25.562Z,4.40
2023-02-23T11:00:00.171Z,4.30
2023-02-23T11:02:27.771Z,4.00
2023-02-23T11:04:57.514Z,4.50
2023-02-23T11:07:29.563Z,4.30
2023-02-23T11:10:01.290Z,3.50
2023-02-23T11:12:38.371Z,4.50
2023-02-23T11:15:49.453Z,2.90
2023-02-23T11:18:22.903Z,4.80
2023-02-23T11:20:50.227Z,4.70
2023-02-23T11:23:32.194Z,4.90
2023-02-23T11:26:01.409Z,4.90
2023-02-23T11:28:33.578Z,4.50
2023-02-23T11:31:04.730Z,4.00
2023-02-23T11:33:36.247Z,4.10
2023-02-23T11:36:27.022Z,4.90
2023-02-23T11:39:03.963Z,4.50
2023-02-23T11:41:35.617Z,4.70
2023-02-23T11:44:06.181Z,4.50
2023-02-23T11:46:36.830Z,4.30
2023-02-23T11:49:08.811Z,5.50
2023-02-23T11:51:37.717Z,4.90
2023-02-23T11:54:05.704Z,4.90
2023-02-23T11:56:33.835Z,5.10
2023-02-23T23:14:20.468Z,15.40
2023-02-23T23:16:48.650Z,15.90
2023-02-23T23:19:18.205Z,17.80
2023-02-23T23:21:46.178Z,16.50
2023-02-23T23:24:16.092Z,17.60
2023-02-23T23:26:44.533Z,16.00
2023-02-23T23:29:13.588Z,16.60
2023-02-23T23:31:45.386Z,16.30
2023-02-23T23:36:49.441Z,12.10
2023-02-23T23:39:17.493Z,15.10
2023-02-23T23:41:48.180Z,15.30
2023-02-23T23:44:17.197Z,13.90
2023-02-23T23:46:45.320Z,14.30
2023-02-23T23:49:18.367Z,14.50
2023-02-23T23:51:51.136Z,14.70
2023-02-23T23:54:20.315Z,15.20
2023-02-23T23:56:47.681Z,16.30
2023-02-23T23:59:16.937Z,15.70
